sensor_id;sensor_type;location;lat;lon;timestamp;pressure;altitude;pressure_sealevel;temperature;humidity
13593;BME280;6867;50.998;4.250;2023-07-20T00:01:33;101272.31;;;18.26;94.90
13593;BME280;6867;50.998;4.250;2023-07-20T00:03:59;101271.75;;;18.24;94.58
13593;BME280;6867;50.998;4.250;2023-07-20T00:06:26;101274.78;;;18.11;94.92
13593;BME280;6867;50.998;4.250;2023-07-20T00:08:53;101273.97;;;18.10;95.29
13593;BME280;6867;50.998;4.250;2023-07-20T00:11:20;101281.09;;;18.00;95.47
13593;BME280;6867;50.998;4.250;2023-07-20T00:13:47;101281.09;;;18.00;95.53
13593;BME280;6867;50.998;4.250;2023-07-20T00:16:14;101286.19;;;17.96;95.74
13593;BME280;6867;50.998;4.250;2023-07-20T00:18:42;101289.59;;;18.03;95.43
13593;BME280;6867;50.998;4.250;2023-07-20T00:21:08;101283.75;;;17.95;95.25
13593;BME280;6867;50.998;4.250;2023-07-20T00:23:35;101287.03;;;17.97;95.31
13593;BME280;6867;50.998;4.250;2023-07-20T00:26:02;101278.31;;;17.95;95.02
13593;BME280;6867;50.998;4.250;2023-07-20T00:28:28;101282.50;;;17.85;95.30
13593;BME280;6867;50.998;4.250;2023-07-20T00:30:55;101288.34;;;17.94;94.57
13593;BME280;6867;50.998;4.250;2023-07-20T00:33:22;101285.97;;;17.98;94.63
13593;BME280;6867;50.998;4.250;2023-07-20T00:35:50;101282.38;;;17.80;94.46
13593;BME280;6867;50.998;4.250;2023-07-20T00:38:17;101282.91;;;17.65;94.29
13593;BME280;6867;50.998;4.250;2023-07-20T00:40:44;101280.66;;;17.62;94.08
13593;BME280;6867;50.998;4.250;2023-07-20T00:43:10;101286.47;;;17.54;93.95
13593;BME280;6867;50.998;4.250;2023-07-20T00:45:38;101275.09;;;17.69;94.14
13593;BME280;6867;50.998;4.250;2023-07-20T00:48:06;101277.28;;;17.72;93.36
13593;BME280;6867;50.998;4.250;2023-07-20T00:50:33;101277.47;;;17.65;92.89
13593;BME280;6867;50.998;4.250;2023-07-20T00:53:02;101284.22;;;17.51;93.59
13593;BME280;6867;50.998;4.250;2023-07-20T00:55:30;101287.41;;;17.60;93.85
13593;BME280;6867;50.998;4.250;2023-07-20T00:57:57;101286.25;;;17.56;93.85
13593;BME280;6867;50.998;4.250;2023-07-20T01:00:25;101287.41;;;17.60;95.29
13593;BME280;6867;50.998;4.250;2023-07-20T01:02:52;101291.97;;;17.71;95.50
13593;BME280;6867;50.998;4.250;2023-07-20T01:05:19;101289.56;;;17.86;94.96
13593;BME280;6867;50.998;4.250;2023-07-20T01:07:52;101288.78;;;17.74;94.01
13593;BME280;6867;50.998;4.250;2023-07-20T01:10:27;101283.63;;;17.61;93.71
13593;BME280;6867;50.998;4.250;2023-07-20T01:12:56;101281.31;;;17.41;93.84
13593;BME280;6867;50.998;4.250;2023-07-20T01:15:24;101290.56;;;17.16;94.40
13593;BME280;6867;50.998;4.250;2023-07-20T01:17:50;101286.41;;;17.26;93.74
13593;BME280;6867;50.998;4.250;2023-07-20T01:20:19;101285.28;;;17.10;93.87
13593;BME280;6867;50.998;4.250;2023-07-20T01:23:22;101294.47;;;17.09;95.18
13593;BME280;6867;50.998;4.250;2023-07-20T01:26:16;101282.31;;;17.11;94.33
13593;BME280;6867;50.998;4.250;2023-07-20T01:29:17;101297.69;;;16.94;94.62
13593;BME280;6867;50.998;4.250;2023-07-20T01:31:52;101295.69;;;16.89;94.73
13593;BME280;6867;50.998;4.250;2023-07-20T01:34:20;101301.34;;;16.88;94.72
13593;BME280;6867;50.998;4.250;2023-07-20T01:36:50;101290.72;;;16.86;94.55
13593;BME280;6867;50.998;4.250;2023-07-20T01:39:19;101296.88;;;16.82;94.71
13593;BME280;6867;50.998;4.250;2023-07-20T01:41:47;101291.66;;;17.04;94.22
13593;BME280;6867;50.998;4.250;2023-07-20T01:44:14;101288.09;;;17.15;93.62
13593;BME280;6867;50.998;4.250;2023-07-20T01:46:40;101282.44;;;17.16;93.09
13593;BME280;6867;50.998;4.250;2023-07-20T01:49:08;101288.38;;;17.02;92.90
13593;BME280;6867;50.998;4.250;2023-07-20T01:51:35;101280.94;;;16.74;93.77
13593;BME280;6867;50.998;4.250;2023-07-20T01:54:02;101292.00;;;16.72;94.43
13593;BME280;6867;50.998;4.250;2023-07-20T01:56:28;101292.00;;;16.72;94.21
13593;BME280;6867;50.998;4.250;2023-07-20T01:58:55;101291.28;;;16.65;94.49
13593;BME280;6867;50.998;4.250;2023-07-20T02:01:22;101297.78;;;16.64;94.63
13593;BME280;6867;50.998;4.250;2023-07-20T02:03:48;101292.69;;;16.67;94.17
13593;BME280;6867;50.998;4.250;2023-07-20T02:06:16;101301.19;;;16.71;94.16
13593;BME280;6867;50.998;4.250;2023-07-20T02:08:43;101294.59;;;16.67;94.33
13593;BME280;6867;50.998;4.250;2023-07-20T02:11:10;101292.13;;;16.65;94.43
13593;BME280;6867;50.998;4.250;2023-07-20T02:13:36;101285.75;;;16.60;94.17
13593;BME280;6867;50.998;4.250;2023-07-20T02:16:03;101288.22;;;16.61;94.20
13593;BME280;6867;50.998;4.250;2023-07-20T02:18:30;101296.59;;;16.60;94.40
13593;BME280;6867;50.998;4.250;2023-07-20T02:20:57;101291.63;;;16.57;95.16
13593;BME280;6867;50.998;4.250;2023-07-20T02:23:25;101292.44;;;16.46;95.38
13593;BME280;6867;50.998;4.250;2023-07-20T02:25:52;101295.97;;;16.34;96.17
13593;BME280;6867;50.998;4.250;2023-07-20T02:28:19;101305.06;;;16.40;96.74
13593;BME280;6867;50.998;4.250;2023-07-20T02:30:45;101300.13;;;16.49;96.59
13593;BME280;6867;50.998;4.250;2023-07-20T02:33:12;101293.88;;;16.48;95.89
13593;BME280;6867;50.998;4.250;2023-07-20T02:35:40;101295.75;;;16.48;95.95
13593;BME280;6867;50.998;4.250;2023-07-20T02:38:07;101293.16;;;16.41;96.73
13593;BME280;6867;50.998;4.250;2023-07-20T02:40:35;101295.53;;;16.49;96.53
13593;BME280;6867;50.998;4.250;2023-07-20T02:43:01;101289.03;;;16.50;96.47
13593;BME280;6867;50.998;4.250;2023-07-20T02:45:29;101290.09;;;16.49;96.20
13593;BME280;6867;50.998;4.250;2023-07-20T02:47:55;101286.56;;;16.49;96.14
13593;BME280;6867;50.998;4.250;2023-07-20T02:50:22;101283.38;;;16.52;96.52
13593;BME280;6867;50.998;4.250;2023-07-20T02:52:48;101286.22;;;16.57;96.67
13593;BME280;6867;50.998;4.250;2023-07-20T02:55:15;101288.25;;;16.73;96.00
13593;BME280;6867;50.998;4.250;2023-07-20T02:57:43;101289.91;;;16.74;96.01
13593;BME280;6867;50.998;4.250;2023-07-20T03:00:11;101295.59;;;16.73;95.85
13593;BME280;6867;50.998;4.250;2023-07-20T03:02:41;101299.53;;;16.58;95.62
13593;BME280;6867;50.998;4.250;2023-07-20T03:05:08;101297.28;;;16.55;96.25
13593;BME280;6867;50.998;4.250;2023-07-20T03:07:35;101302.25;;;16.58;96.67
13593;BME280;6867;50.998;4.250;2023-07-20T03:10:02;101303.44;;;16.62;96.92
13593;BME280;6867;50.998;4.250;2023-07-20T03:12:29;101315.31;;;16.50;97.24
13593;BME280;6867;50.998;4.250;2023-07-20T03:14:57;101303.88;;;16.59;97.78
13593;BME280;6867;50.998;4.250;2023-07-20T03:17:24;101312.75;;;16.66;97.53
13593;BME280;6867;50.998;4.250;2023-07-20T03:19:51;101303.53;;;16.67;97.48
13593;BME280;6867;50.998;4.250;2023-07-20T03:22:17;101300.41;;;16.82;97.21
13593;BME280;6867;50.998;4.250;2023-07-20T03:24:44;101300.41;;;17.06;96.68
13593;BME280;6867;50.998;4.250;2023-07-20T03:27:11;101294.47;;;17.09;95.93
13593;BME280;6867;50.998;4.250;2023-07-20T03:29:37;101298.00;;;17.21;95.53
13593;BME280;6867;50.998;4.250;2023-07-20T03:32:06;101311.00;;;17.19;95.41
13593;BME280;6867;50.998;4.250;2023-07-20T03:34:32;101311.56;;;17.21;95.46
13593;BME280;6867;50.998;4.250;2023-07-20T03:36:59;101303.75;;;17.36;95.08
13593;BME280;6867;50.998;4.250;2023-07-20T03:39:26;101305.78;;;17.29;95.31
13593;BME280;6867;50.998;4.250;2023-07-20T03:41:53;101314.03;;;17.34;95.21
13593;BME280;6867;50.998;4.250;2023-07-20T03:44:19;101306.47;;;17.36;94.82
13593;BME280;6867;50.998;4.250;2023-07-20T03:46:46;101302.47;;;17.39;94.90
13593;BME280;6867;50.998;4.250;2023-07-20T03:49:14;101301.41;;;17.40;94.75
13593;BME280;6867;50.998;4.250;2023-07-20T03:51:41;101306.09;;;17.45;94.96
13593;BME280;6867;50.998;4.250;2023-07-20T03:54:07;101317.88;;;17.50;95.17
13593;BME280;6867;50.998;4.250;2023-07-20T03:56:34;101313.88;;;17.53;94.84
13593;BME280;6867;50.998;4.250;2023-07-20T03:59:01;101317.50;;;17.58;95.03
13593;BME280;6867;50.998;4.250;2023-07-20T04:01:28;101312.81;;;17.54;94.76
13593;BME280;6867;50.998;4.250;2023-07-20T04:03:54;101317.50;;;17.58;94.74
13593;BME280;6867;50.998;4.250;2023-07-20T04:06:22;101329.28;;;17.64;95.23
13593;BME280;6867;50.998;4.250;2023-07-20T04:08:49;101339.22;;;17.70;94.18
13593;BME280;6867;50.998;4.250;2023-07-20T04:11:16;101341.00;;;17.76;94.27
13593;BME280;6867;50.998;4.250;2023-07-20T04:13:42;101327.41;;;17.76;93.59
13593;BME280;6867;50.998;4.250;2023-07-20T04:16:09;101331.44;;;17.62;93.57
13593;BME280;6867;50.998;4.250;2023-07-20T04:18:36;101333.81;;;17.58;93.51
13593;BME280;6867;50.998;4.250;2023-07-20T04:21:02;101328.91;;;17.43;93.65
13593;BME280;6867;50.998;4.250;2023-07-20T04:23:30;101333.91;;;17.63;94.14
13593;BME280;6867;50.998;4.250;2023-07-20T04:25:57;101333.09;;;17.63;94.22
13593;BME280;6867;50.998;4.250;2023-07-20T04:28:24;101328.47;;;17.63;94.44
13593;BME280;6867;50.998;4.250;2023-07-20T04:30:50;101331.91;;;17.59;94.78
13593;BME280;6867;50.998;4.250;2023-07-20T04:33:17;101337.34;;;17.59;94.54
13593;BME280;6867;50.998;4.250;2023-07-20T04:35:46;101341.25;;;17.63;94.74
13593;BME280;6867;50.998;4.250;2023-07-20T04:38:13;101336.44;;;17.53;94.77
13593;BME280;6867;50.998;4.250;2023-07-20T04:40:42;101334.50;;;17.77;95.38
13593;BME280;6867;50.998;4.250;2023-07-20T04:43:08;101324.41;;;17.89;95.06
13593;BME280;6867;50.998;4.250;2023-07-20T04:45:35;101333.88;;;17.87;94.72
13593;BME280;6867;50.998;4.250;2023-07-20T04:48:02;101346.69;;;18.03;94.87
13593;BME280;6867;50.998;4.250;2023-07-20T04:50:29;101340.69;;;18.18;94.50
13593;BME280;6867;50.998;4.250;2023-07-20T04:52:55;101334.22;;;18.36;94.51
13593;BME280;6867;50.998;4.250;2023-07-20T04:55:22;101339.09;;;18.51;94.10
13593;BME280;6867;50.998;4.250;2023-07-20T04:57:50;101337.19;;;18.51;93.14
13593;BME280;6867;50.998;4.250;2023-07-20T05:00:17;101337.44;;;18.66;92.88
13593;BME280;6867;50.998;4.250;2023-07-20T05:02:44;101335.66;;;18.72;92.36
13593;BME280;6867;50.998;4.250;2023-07-20T05:05:12;101336.25;;;18.74;91.86
13593;BME280;6867;50.998;4.250;2023-07-20T05:07:39;101350.94;;;18.90;91.70
13593;BME280;6867;50.998;4.250;2023-07-20T05:10:07;101342.00;;;18.95;91.32
13593;BME280;6867;50.998;4.250;2023-07-20T05:12:33;101332.25;;;18.99;91.34
13593;BME280;6867;50.998;4.250;2023-07-20T05:15:02;101344.47;;;18.96;91.72
13593;BME280;6867;50.998;4.250;2023-07-20T05:17:29;101336.50;;;18.89;91.83
13593;BME280;6867;50.998;4.250;2023-07-20T05:19:55;101339.28;;;18.95;91.74
13593;BME280;6867;50.998;4.250;2023-07-20T05:22:22;101343.56;;;18.90;90.97
13593;BME280;6867;50.998;4.250;2023-07-20T05:24:50;101342.06;;;19.00;91.21
13593;BME280;6867;50.998;4.250;2023-07-20T05:27:16;101344.69;;;19.11;90.99
13593;BME280;6867;50.998;4.250;2023-07-20T05:29:44;101351.75;;;19.29;91.08
13593;BME280;6867;50.998;4.250;2023-07-20T05:32:12;101342.59;;;19.35;90.41
13593;BME280;6867;50.998;4.250;2023-07-20T05:34:39;101342.97;;;19.44;90.33
13593;BME280;6867;50.998;4.250;2023-07-20T05:37:05;101345.31;;;19.57;90.31
13593;BME280;6867;50.998;4.250;2023-07-20T05:39:32;101338.78;;;19.80;88.96
13593;BME280;6867;50.998;4.250;2023-07-20T05:41:59;101342.00;;;19.99;87.95
13593;BME280;6867;50.998;4.250;2023-07-20T05:44:26;101324.38;;;19.85;85.61
13593;BME280;6867;50.998;4.250;2023-07-20T05:46:52;101333.91;;;20.09;85.10
13593;BME280;6867;50.998;4.250;2023-07-20T05:49:20;101326.72;;;20.25;85.04
13593;BME280;6867;50.998;4.250;2023-07-20T05:51:47;101333.38;;;20.39;84.95
13593;BME280;6867;50.998;4.250;2023-07-20T05:54:13;101332.22;;;20.57;84.55
13593;BME280;6867;50.998;4.250;2023-07-20T05:56:40;101327.88;;;20.61;83.50
13593;BME280;6867;50.998;4.250;2023-07-20T05:59:07;101330.03;;;20.59;82.78
13593;BME280;6867;50.998;4.250;2023-07-20T06:01:33;101337.56;;;20.79;82.77
13593;BME280;6867;50.998;4.250;2023-07-20T06:04:00;101330.97;;;20.75;80.97
13593;BME280;6867;50.998;4.250;2023-07-20T06:06:28;101329.50;;;20.95;80.28
13593;BME280;6867;50.998;4.250;2023-07-20T06:08:55;101326.19;;;20.93;79.45
13593;BME280;6867;50.998;4.250;2023-07-20T06:11:21;101329.94;;;21.29;78.49
13593;BME280;6867;50.998;4.250;2023-07-20T06:13:48;101332.84;;;21.64;78.11
13593;BME280;6867;50.998;4.250;2023-07-20T06:16:15;101315.63;;;21.64;76.22
13593;BME280;6867;50.998;4.250;2023-07-20T06:18:41;101322.19;;;21.58;75.91
13593;BME280;6867;50.998;4.250;2023-07-20T06:21:08;101326.25;;;21.50;75.24
13593;BME280;6867;50.998;4.250;2023-07-20T06:23:36;101328.28;;;21.85;74.91
13593;BME280;6867;50.998;4.250;2023-07-20T06:26:03;101323.44;;;22.18;73.95
13593;BME280;6867;50.998;4.250;2023-07-20T06:28:29;101316.88;;;22.14;72.65
13593;BME280;6867;50.998;4.250;2023-07-20T06:30:59;101318.19;;;21.91;72.04
13593;BME280;6867;50.998;4.250;2023-07-20T06:33:26;101325.09;;;22.29;72.24
13593;BME280;6867;50.998;4.250;2023-07-20T06:35:53;101327.56;;;22.31;71.90
13593;BME280;6867;50.998;4.250;2023-07-20T06:38:20;101334.41;;;22.79;71.31
13593;BME280;6867;50.998;4.250;2023-07-20T06:40:50;101324.28;;;22.59;70.17
13593;BME280;6867;50.998;4.250;2023-07-20T06:43:17;101319.06;;;22.78;69.60
13593;BME280;6867;50.998;4.250;2023-07-20T06:45:44;101313.84;;;22.97;68.09
13593;BME280;6867;50.998;4.250;2023-07-20T06:48:10;101312.03;;;23.47;67.10
13593;BME280;6867;50.998;4.250;2023-07-20T06:50:37;101301.66;;;23.39;65.71
13593;BME280;6867;50.998;4.250;2023-07-20T06:53:04;101304.03;;;23.66;65.65
13593;BME280;6867;50.998;4.250;2023-07-20T06:55:30;101301.56;;;24.09;64.48
13593;BME280;6867;50.998;4.250;2023-07-20T06:57:58;101302.13;;;24.06;64.11
13593;BME280;6867;50.998;4.250;2023-07-20T07:00:25;101311.03;;;24.27;64.39
13593;BME280;6867;50.998;4.250;2023-07-20T07:02:51;101303.91;;;23.92;63.85
13593;BME280;6867;50.998;4.250;2023-07-20T07:05:18;101315.94;;;23.96;64.36
13593;BME280;6867;50.998;4.250;2023-07-20T07:07:45;101301.53;;;24.14;63.34
13593;BME280;6867;50.998;4.250;2023-07-20T07:10:12;101307.06;;;24.48;62.80
13593;BME280;6867;50.998;4.250;2023-07-20T07:12:39;101303.09;;;24.25;62.33
13593;BME280;6867;50.998;4.250;2023-07-20T07:15:09;101309.47;;;24.55;62.19
13593;BME280;6867;50.998;4.250;2023-07-20T07:17:36;101272.94;;;24.83;59.10
13593;BME280;6867;50.998;4.250;2023-07-20T07:20:04;101291.31;;;24.25;60.35
13593;BME280;6867;50.998;4.250;2023-07-20T07:22:32;101286.28;;;24.66;59.90
13593;BME280;6867;50.998;4.250;2023-07-20T07:24:59;101305.56;;;24.27;60.60
13593;BME280;6867;50.998;4.250;2023-07-20T07:27:26;101314.34;;;24.29;61.39
13593;BME280;6867;50.998;4.250;2023-07-20T07:29:52;101325.78;;;24.02;62.44
13593;BME280;6867;50.998;4.250;2023-07-20T07:32:21;101305.13;;;24.49;61.49
13593;BME280;6867;50.998;4.250;2023-07-20T07:34:48;101316.66;;;25.09;60.40
13593;BME280;6867;50.998;4.250;2023-07-20T07:37:15;101318.38;;;25.00;60.28
13593;BME280;6867;50.998;4.250;2023-07-20T07:39:42;101280.56;;;25.16;58.56
13593;BME280;6867;50.998;4.250;2023-07-20T07:42:09;101289.88;;;24.91;59.14
13593;BME280;6867;50.998;4.250;2023-07-20T07:44:35;101300.88;;;24.67;59.61
13593;BME280;6867;50.998;4.250;2023-07-20T07:47:02;101293.38;;;24.43;59.24
13593;BME280;6867;50.998;4.250;2023-07-20T07:49:30;101293.13;;;24.69;59.13
13593;BME280;6867;50.998;4.250;2023-07-20T07:51:57;101276.19;;;25.15;57.22
13593;BME280;6867;50.998;4.250;2023-07-20T07:54:24;101300.47;;;25.02;58.02
13593;BME280;6867;50.998;4.250;2023-07-20T07:56:51;101302.19;;;24.69;58.51
13593;BME280;6867;50.998;4.250;2023-07-20T07:59:18;101295.56;;;24.99;58.28
13593;BME280;6867;50.998;4.250;2023-07-20T08:01:44;101307.91;;;25.02;58.61
13593;BME280;6867;50.998;4.250;2023-07-20T08:04:11;101312.66;;;24.33;59.36
13593;BME280;6867;50.998;4.250;2023-07-20T08:06:39;101300.84;;;25.44;57.52
13593;BME280;6867;50.998;4.250;2023-07-20T08:09:06;101297.03;;;25.82;57.28
13593;BME280;6867;50.998;4.250;2023-07-20T08:11:33;101270.03;;;26.69;54.76
13593;BME280;6867;50.998;4.250;2023-07-20T08:14:00;101248.41;;;27.03;52.56
13593;BME280;6867;50.998;4.250;2023-07-20T08:16:27;101245.97;;;27.29;51.95
13593;BME280;6867;50.998;4.250;2023-07-20T08:18:54;101282.75;;;27.11;53.54
13593;BME280;6867;50.998;4.250;2023-07-20T08:21:20;101283.59;;;26.32;54.09
13593;BME280;6867;50.998;4.250;2023-07-20T08:23:48;101298.25;;;25.09;56.46
13593;BME280;6867;50.998;4.250;2023-07-20T08:26:15;101302.47;;;25.45;56.89
13593;BME280;6867;50.998;4.250;2023-07-20T08:28:44;101300.72;;;26.48;55.05
13593;BME280;6867;50.998;4.250;2023-07-20T08:31:10;101288.38;;;26.08;55.21
13593;BME280;6867;50.998;4.250;2023-07-20T08:33:37;101268.91;;;26.56;53.57
13593;BME280;6867;50.998;4.250;2023-07-20T08:36:04;101275.28;;;27.12;53.12
13593;BME280;6867;50.998;4.250;2023-07-20T08:38:31;101265.16;;;27.07;51.88
13593;BME280;6867;50.998;4.250;2023-07-20T08:40:59;101292.44;;;27.36;53.09
13593;BME280;6867;50.998;4.250;2023-07-20T08:43:27;101259.72;;;28.38;50.27
13593;BME280;6867;50.998;4.250;2023-07-20T08:45:55;101244.19;;;27.97;49.35
13593;BME280;6867;50.998;4.250;2023-07-20T08:48:22;101223.97;;;28.11;48.70
13593;BME280;6867;50.998;4.250;2023-07-20T08:50:51;101232.25;;;29.04;47.04
13593;BME280;6867;50.998;4.250;2023-07-20T08:53:19;101224.16;;;29.34;46.96
13593;BME280;6867;50.998;4.250;2023-07-20T08:55:49;101243.56;;;29.51;46.92
13593;BME280;6867;50.998;4.250;2023-07-20T08:58:18;101225.22;;;29.81;45.46
13593;BME280;6867;50.998;4.250;2023-07-20T09:00:45;101238.75;;;30.64;45.09
13593;BME280;6867;50.998;4.250;2023-07-20T09:03:15;101212.09;;;30.81;43.08
13593;BME280;6867;50.998;4.250;2023-07-20T09:05:42;101223.47;;;28.71;45.62
13593;BME280;6867;50.998;4.250;2023-07-20T09:08:09;101258.81;;;28.43;47.82
13593;BME280;6867;50.998;4.250;2023-07-20T09:10:35;101234.22;;;29.12;46.86
13593;BME280;6867;50.998;4.250;2023-07-20T09:13:02;101225.91;;;29.12;46.33
13593;BME280;6867;50.998;4.250;2023-07-20T09:15:30;101209.81;;;28.35;45.92
13593;BME280;6867;50.998;4.250;2023-07-20T09:18:00;101221.09;;;28.87;45.55
13593;BME280;6867;50.998;4.250;2023-07-20T09:20:31;101172.50;;;28.94;42.38
13593;BME280;6867;50.998;4.250;2023-07-20T09:22:58;101187.38;;;28.05;43.78
13593;BME280;6867;50.998;4.250;2023-07-20T09:25:26;101169.53;;;27.80;42.54
13593;BME280;6867;50.998;4.250;2023-07-20T09:27:53;101191.09;;;29.02;42.20
13593;BME280;6867;50.998;4.250;2023-07-20T09:30:24;101212.28;;;28.76;44.19
13593;BME280;6867;50.998;4.250;2023-07-20T09:32:53;101219.44;;;28.37;45.45
13593;BME280;6867;50.998;4.250;2023-07-20T09:35:20;101199.56;;;29.06;43.30
13593;BME280;6867;50.998;4.250;2023-07-20T09:37:50;101210.13;;;29.04;44.22
13593;BME280;6867;50.998;4.250;2023-07-20T09:40:19;101232.16;;;29.26;45.09
13593;BME280;6867;50.998;4.250;2023-07-20T09:42:46;101211.59;;;28.62;45.25
13593;BME280;6867;50.998;4.250;2023-07-20T09:45:15;101207.59;;;28.76;44.48
13593;BME280;6867;50.998;4.250;2023-07-20T09:47:42;101224.22;;;28.54;45.34
13593;BME280;6867;50.998;4.250;2023-07-20T09:50:10;101215.19;;;28.71;45.21
13593;BME280;6867;50.998;4.250;2023-07-20T09:52:41;101177.09;;;28.28;43.72
13593;BME280;6867;50.998;4.250;2023-07-20T09:55:10;101185.44;;;28.68;43.75
13593;BME280;6867;50.998;4.250;2023-07-20T09:57:38;101169.16;;;28.66;43.00
13593;BME280;6867;50.998;4.250;2023-07-20T10:00:06;101184.13;;;29.22;42.34
13593;BME280;6867;50.998;4.250;2023-07-20T10:02:41;101179.09;;;29.68;42.34
13593;BME280;6867;50.998;4.250;2023-07-20T10:05:11;101171.41;;;29.04;41.87
13593;BME280;6867;50.998;4.250;2023-07-20T10:07:44;101170.59;;;30.08;40.84
13593;BME280;6867;50.998;4.250;2023-07-20T10:10:14;101179.72;;;29.99;41.69
13593;BME280;6867;50.998;4.250;2023-07-20T10:12:42;101203.81;;;29.21;44.36
13593;BME280;6867;50.998;4.250;2023-07-20T10:15:12;101224.38;;;28.49;46.02
13593;BME280;6867;50.998;4.250;2023-07-20T10:17:53;101205.66;;;28.46;45.34
13593;BME280;6867;50.998;4.250;2023-07-20T10:20:26;101193.63;;;28.19;45.18
13593;BME280;6867;50.998;4.250;2023-07-20T10:22:54;101200.28;;;28.41;45.14
13593;BME280;6867;50.998;4.250;2023-07-20T10:25:22;101196.97;;;28.70;45.20
13593;BME280;6867;50.998;4.250;2023-07-20T10:27:49;101204.41;;;28.52;45.66
13593;BME280;6867;50.998;4.250;2023-07-20T10:30:17;101218.50;;;28.50;46.49
13593;BME280;6867;50.998;4.250;2023-07-20T10:32:44;101157.72;;;28.19;43.48
13593;BME280;6867;50.998;4.250;2023-07-20T10:35:15;101155.50;;;29.18;41.77
13593;BME280;6867;50.998;4.250;2023-07-20T10:37:51;101159.06;;;29.53;41.87
13593;BME280;6867;50.998;4.250;2023-07-20T10:40:28;101175.16;;;29.08;43.41
13593;BME280;6867;50.998;4.250;2023-07-20T10:43:00;101165.22;;;28.98;43.39
13593;BME280;6867;50.998;4.250;2023-07-20T10:45:34;101184.69;;;28.85;44.21
13593;BME280;6867;50.998;4.250;2023-07-20T10:48:03;101159.28;;;28.83;43.70
13593;BME280;6867;50.998;4.250;2023-07-20T10:50:32;101188.28;;;28.54;44.84
13593;BME280;6867;50.998;4.250;2023-07-20T10:53:10;101180.91;;;28.10;45.59
13593;BME280;6867;50.998;4.250;2023-07-20T10:55:37;101162.47;;;29.24;43.81
13593;BME280;6867;50.998;4.250;2023-07-20T10:58:07;101166.41;;;28.66;44.36
13593;BME280;6867;50.998;4.250;2023-07-20T11:00:35;101195.38;;;29.43;45.18
13593;BME280;6867;50.998;4.250;2023-07-20T11:03:02;101146.38;;;29.26;42.66
13593;BME280;6867;50.998;4.250;2023-07-20T11:05:36;101173.38;;;29.29;44.08
13593;BME280;6867;50.998;4.250;2023-07-20T11:08:10;101126.53;;;29.33;41.32
13593;BME280;6867;50.998;4.250;2023-07-20T11:10:38;101142.94;;;29.47;42.25
13593;BME280;6867;50.998;4.250;2023-07-20T11:13:18;101123.53;;;28.95;41.45
13593;BME280;6867;50.998;4.250;2023-07-20T11:15:46;101124.78;;;28.71;41.40
13593;BME280;6867;50.998;4.250;2023-07-20T11:18:13;101154.84;;;28.56;42.98
13593;BME280;6867;50.998;4.250;2023-07-20T11:20:40;101161.84;;;27.99;45.22
13593;BME280;6867;50.998;4.250;2023-07-20T11:23:09;101164.91;;;28.29;44.82
13593;BME280;6867;50.998;4.250;2023-07-20T11:25:39;101157.38;;;28.43;43.79
13593;BME280;6867;50.998;4.250;2023-07-20T11:28:09;101159.53;;;28.55;44.46
13593;BME280;6867;50.998;4.250;2023-07-20T11:30:36;101167.16;;;28.18;45.03
13593;BME280;6867;50.998;4.250;2023-07-20T11:33:03;101142.06;;;28.06;44.35
13593;BME280;6867;50.998;4.250;2023-07-20T11:35:31;101121.97;;;27.24;44.51
13593;BME280;6867;50.998;4.250;2023-07-20T11:37:57;101136.47;;;27.30;44.57
13593;BME280;6867;50.998;4.250;2023-07-20T11:40:25;101131.69;;;27.08;45.01
13593;BME280;6867;50.998;4.250;2023-07-20T11:42:53;101108.19;;;27.69;43.48
13593;BME280;6867;50.998;4.250;2023-07-20T11:45:19;101117.22;;;28.46;42.93
13593;BME280;6867;50.998;4.250;2023-07-20T11:47:46;101112.47;;;28.77;42.62
13593;BME280;6867;50.998;4.250;2023-07-20T11:50:13;101097.72;;;29.25;41.17
13593;BME280;6867;50.998;4.250;2023-07-20T11:52:41;101102.38;;;28.73;42.01
13593;BME280;6867;50.998;4.250;2023-07-20T11:55:08;101150.28;;;29.34;44.42
13593;BME280;6867;50.998;4.250;2023-07-20T11:57:36;101133.81;;;29.90;42.72
13593;BME280;6867;50.998;4.250;2023-07-20T12:00:05;101127.34;;;29.77;43.21
13593;BME280;6867;50.998;4.250;2023-07-20T12:02:37;101124.44;;;29.56;42.89
13593;BME280;6867;50.998;4.250;2023-07-20T12:05:04;101104.06;;;29.17;41.97
13593;BME280;6867;50.998;4.250;2023-07-20T12:07:35;101090.19;;;28.83;41.98
13593;BME280;6867;50.998;4.250;2023-07-20T12:10:06;101121.16;;;28.14;44.42
13593;BME280;6867;50.998;4.250;2023-07-20T12:12:33;101128.59;;;28.13;45.09
13593;BME280;6867;50.998;4.250;2023-07-20T12:15:15;101121.00;;;27.88;45.04
13593;BME280;6867;50.998;4.250;2023-07-20T12:17:43;101119.13;;;27.52;45.29
13593;BME280;6867;50.998;4.250;2023-07-20T12:20:10;101103.66;;;26.23;45.47
13593;BME280;6867;50.998;4.250;2023-07-20T12:22:40;101107.44;;;26.82;45.45
13593;BME280;6867;50.998;4.250;2023-07-20T12:25:07;101111.81;;;27.11;45.43
13593;BME280;6867;50.998;4.250;2023-07-20T12:27:36;101127.59;;;26.55;46.93
13593;BME280;6867;50.998;4.250;2023-07-20T12:30:04;101150.38;;;25.82;48.68
13593;BME280;6867;50.998;4.250;2023-07-20T12:32:33;101129.53;;;26.55;47.27
13593;BME280;6867;50.998;4.250;2023-07-20T12:34:59;101131.31;;;26.32;47.93
13593;BME280;6867;50.998;4.250;2023-07-20T12:37:26;101136.44;;;26.39;48.42
13593;BME280;6867;50.998;4.250;2023-07-20T12:39:53;101127.09;;;26.07;48.19
13593;BME280;6867;50.998;4.250;2023-07-20T12:42:20;101141.06;;;25.97;48.54
13593;BME280;6867;50.998;4.250;2023-07-20T12:44:48;101159.91;;;26.03;49.72
13593;BME280;6867;50.998;4.250;2023-07-20T12:47:15;101145.00;;;25.91;49.39
13593;BME280;6867;50.998;4.250;2023-07-20T12:49:43;101176.34;;;24.95;52.16
13593;BME280;6867;50.998;4.250;2023-07-20T12:52:12;101188.81;;;24.64;53.58
13593;BME280;6867;50.998;4.250;2023-07-20T12:54:38;101154.81;;;24.83;51.73
13593;BME280;6867;50.998;4.250;2023-07-20T12:57:06;101163.00;;;24.35;51.99
13593;BME280;6867;50.998;4.250;2023-07-20T12:59:32;101153.91;;;24.40;52.65
13593;BME280;6867;50.998;4.250;2023-07-20T13:01:59;101164.19;;;24.24;53.17
13593;BME280;6867;50.998;4.250;2023-07-20T13:04:26;101162.81;;;24.27;53.72